sensor_id;sensor_type;location;lat;lon;timestamp;P1;durP1;ratioP1;P2;durP2;ratioP2
5587;SDS011;2816;49.778;9.986;2022-10-16T00:00:37;1.67;;;1.57;;
5587;SDS011;2816;49.778;9.986;2022-10-16T00:03:05;2.50;;;1.33;;
5587;SDS011;2816;49.778;9.986;2022-10-16T00:05:33;1.33;;;1.23;;
5587;SDS011;2816;49.778;9.986;2022-10-16T00:08:06;2.30;;;1.37;;
5587;SDS011;2816;49.778;9.986;2022-10-16T00:10:34;4.50;;;1.40;;
5587;SDS011;2816;49.778;9.986;2022-10-16T00:13:01;1.50;;;1.40;;
5587;SDS011;2816;49.778;9.986;2022-10-16T00:15:29;3.30;;;1.67;;
5587;SDS011;2816;49.778;9.986;2022-10-16T00:17:56;1.53;;;1.43;;
5587;SDS011;2816;49.778;9.986;2022-10-16T00:20:23;1.40;;;1.30;;
5587;SDS011;2816;49.778;9.986;2022-10-16T00:22:50;1.47;;;1.37;;
5587;SDS011;2816;49.778;9.986;2022-10-16T00:25:18;2.43;;;1.53;;
5587;SDS011;2816;49.778;9.986;2022-10-16T00:27:45;1.30;;;1.20;;
5587;SDS011;2816;49.778;9.986;2022-10-16T00:30:12;4.13;;;1.57;;
5587;SDS011;2816;49.778;9.986;2022-10-16T00:32:39;3.13;;;1.40;;
5587;SDS011;2816;49.778;9.986;2022-10-16T00:35:06;2.40;;;1.30;;
5587;SDS011;2816;49.778;9.986;2022-10-16T00:37:33;2.40;;;1.30;;
5587;SDS011;2816;49.778;9.986;2022-10-16T00:40:00;1.50;;;1.40;;
5587;SDS011;2816;49.778;9.986;2022-10-16T00:42:28;1.20;;;1.20;;
5587;SDS011;2816;49.778;9.986;2022-10-16T00:44:55;1.83;;;1.30;;
5587;SDS011;2816;49.778;9.986;2022-10-16T00:47:24;3.50;;;1.40;;
5587;SDS011;2816;49.778;9.986;2022-10-16T00:49:55;1.33;;;1.23;;
5587;SDS011;2816;49.778;9.986;2022-10-16T00:52:26;3.93;;;1.40;;
5587;SDS011;2816;49.778;9.986;2022-10-16T00:54:53;1.67;;;1.57;;
5587;SDS011;2816;49.778;9.986;2022-10-16T00:57:21;2.67;;;1.37;;
5587;SDS011;2816;49.778;9.986;2022-10-16T00:59:50;3.27;;;1.40;;
5587;SDS011;2816;49.778;9.986;2022-10-16T01:02:17;1.53;;;1.43;;
5587;SDS011;2816;49.778;9.986;2022-10-16T01:04:46;1.63;;;1.53;;
5587;SDS011;2816;49.778;9.986;2022-10-16T01:07:17;1.40;;;1.30;;
5587;SDS011;2816;49.778;9.986;2022-10-16T01:09:57;1.40;;;1.30;;
5587;SDS011;2816;49.778;9.986;2022-10-16T01:12:32;3.07;;;1.17;;
5587;SDS011;2816;49.778;9.986;2022-10-16T01:15:10;1.60;;;1.50;;
5587;SDS011;2816;49.778;9.986;2022-10-16T01:17:45;3.13;;;1.50;;
5587;SDS011;2816;49.778;9.986;2022-10-16T01:20:18;1.73;;;1.30;;
5587;SDS011;2816;49.778;9.986;2022-10-16T01:22:56;1.50;;;1.40;;
5587;SDS011;2816;49.778;9.986;2022-10-16T01:25:36;1.80;;;1.60;;
5587;SDS011;2816;49.778;9.986;2022-10-16T01:28:20;7.70;;;1.50;;
5587;SDS011;2816;49.778;9.986;2022-10-16T01:30:50;1.70;;;1.37;;
5587;SDS011;2816;49.778;9.986;2022-10-16T01:33:20;4.63;;;1.30;;
5587;SDS011;2816;49.778;9.986;2022-10-16T01:35:52;2.90;;;1.40;;
5587;SDS011;2816;49.778;9.986;2022-10-16T01:38:21;2.80;;;1.40;;
5587;SDS011;2816;49.778;9.986;2022-10-16T01:40:56;3.37;;;1.60;;
5587;SDS011;2816;49.778;9.986;2022-10-16T01:43:31;2.67;;;1.50;;
5587;SDS011;2816;49.778;9.986;2022-10-16T01:46:02;6.70;;;1.80;;
5587;SDS011;2816;49.778;9.986;2022-10-16T01:48:30;1.70;;;1.33;;
5587;SDS011;2816;49.778;9.986;2022-10-16T01:50:59;3.00;;;1.90;;
5587;SDS011;2816;49.778;9.986;2022-10-16T01:53:31;3.87;;;1.50;;
5587;SDS011;2816;49.778;9.986;2022-10-16T01:55:59;1.77;;;1.60;;
5587;SDS011;2816;49.778;9.986;2022-10-16T01:58:29;1.40;;;1.30;;
5587;SDS011;2816;49.778;9.986;2022-10-16T02:00:59;1.30;;;1.20;;
5587;SDS011;2816;49.778;9.986;2022-10-16T02:03:28;4.50;;;1.40;;
5587;SDS011;2816;49.778;9.986;2022-10-16T02:05:56;1.53;;;1.43;;
5587;SDS011;2816;49.778;9.986;2022-10-16T02:08:25;1.30;;;1.20;;
5587;SDS011;2816;49.778;9.986;2022-10-16T02:10:55;1.50;;;1.40;;
5587;SDS011;2816;49.778;9.986;2022-10-16T02:13:24;1.50;;;1.40;;
5587;SDS011;2816;49.778;9.986;2022-10-16T02:15:55;1.57;;;1.40;;
5587;SDS011;2816;49.778;9.986;2022-10-16T02:18:22;4.03;;;1.83;;
5587;SDS011;2816;49.778;9.986;2022-10-16T02:20:52;3.57;;;1.50;;
5587;SDS011;2816;49.778;9.986;2022-10-16T02:23:31;2.60;;;1.57;;
5587;SDS011;2816;49.778;9.986;2022-10-16T02:26:04;4.40;;;1.50;;
5587;SDS011;2816;49.778;9.986;2022-10-16T02:28:36;1.83;;;1.30;;
5587;SDS011;2816;49.778;9.986;2022-10-16T02:31:10;3.60;;;1.30;;
5587;SDS011;2816;49.778;9.986;2022-10-16T02:33:39;4.03;;;1.30;;
5587;SDS011;2816;49.778;9.986;2022-10-16T02:36:08;4.53;;;3.00;;
5587;SDS011;2816;49.778;9.986;2022-10-16T02:38:36;2.63;;;1.30;;
5587;SDS011;2816;49.778;9.986;2022-10-16T02:41:04;1.90;;;1.50;;
5587;SDS011;2816;49.778;9.986;2022-10-16T02:43:31;2.70;;;1.20;;
5587;SDS011;2816;49.778;9.986;2022-10-16T02:45:59;1.50;;;1.40;;
5587;SDS011;2816;49.778;9.986;2022-10-16T02:48:27;4.43;;;1.60;;
5587;SDS011;2816;49.778;9.986;2022-10-16T02:50:54;1.50;;;1.40;;
5587;SDS011;2816;49.778;9.986;2022-10-16T02:53:23;3.23;;;1.33;;
5587;SDS011;2816;49.778;9.986;2022-10-16T02:55:50;2.80;;;1.60;;
5587;SDS011;2816;49.778;9.986;2022-10-16T02:58:17;1.40;;;1.30;;
5587;SDS011;2816;49.778;9.986;2022-10-16T03:00:44;1.60;;;1.50;;
5587;SDS011;2816;49.778;9.986;2022-10-16T03:03:11;1.60;;;1.50;;
5587;SDS011;2816;49.778;9.986;2022-10-16T03:05:40;1.40;;;1.30;;
5587;SDS011;2816;49.778;9.986;2022-10-16T03:08:07;2.03;;;1.20;;
5587;SDS011;2816;49.778;9.986;2022-10-16T03:10:34;2.40;;;1.50;;
5587;SDS011;2816;49.778;9.986;2022-10-16T03:13:01;1.50;;;1.40;;
5587;SDS011;2816;49.778;9.986;2022-10-16T03:15:27;1.30;;;1.20;;
5587;SDS011;2816;49.778;9.986;2022-10-16T03:17:55;1.20;;;1.10;;
5587;SDS011;2816;49.778;9.986;2022-10-16T03:20:24;1.93;;;1.40;;
5587;SDS011;2816;49.778;9.986;2022-10-16T03:22:52;2.60;;;1.40;;
5587;SDS011;2816;49.778;9.986;2022-10-16T03:25:19;1.60;;;1.50;;
5587;SDS011;2816;49.778;9.986;2022-10-16T03:27:46;2.80;;;1.30;;
5587;SDS011;2816;49.778;9.986;2022-10-16T03:30:13;1.63;;;1.13;;
5587;SDS011;2816;49.778;9.986;2022-10-16T03:32:41;1.60;;;1.50;;
5587;SDS011;2816;49.778;9.986;2022-10-16T03:35:09;1.53;;;1.33;;
5587;SDS011;2816;49.778;9.986;2022-10-16T03:37:36;1.40;;;1.30;;
5587;SDS011;2816;49.778;9.986;2022-10-16T03:40:05;1.47;;;1.37;;
5587;SDS011;2816;49.778;9.986;2022-10-16T03:42:33;2.03;;;1.30;;
5587;SDS011;2816;49.778;9.986;2022-10-16T03:45:00;1.40;;;1.30;;
5587;SDS011;2816;49.778;9.986;2022-10-16T03:47:27;1.23;;;1.13;;
5587;SDS011;2816;49.778;9.986;2022-10-16T03:49:54;5.70;;;1.27;;
5587;SDS011;2816;49.778;9.986;2022-10-16T03:52:20;1.20;;;1.10;;
5587;SDS011;2816;49.778;9.986;2022-10-16T03:54:47;1.30;;;1.20;;
5587;SDS011;2816;49.778;9.986;2022-10-16T03:57:16;1.43;;;1.33;;
5587;SDS011;2816;49.778;9.986;2022-10-16T03:59:43;1.77;;;1.67;;
5587;SDS011;2816;49.778;9.986;2022-10-16T04:02:10;1.50;;;1.20;;
5587;SDS011;2816;49.778;9.986;2022-10-16T04:04:38;2.93;;;1.40;;
5587;SDS011;2816;49.778;9.986;2022-10-16T04:07:05;2.10;;;1.10;;
5587;SDS011;2816;49.778;9.986;2022-10-16T04:09:32;2.07;;;1.33;;
5587;SDS011;2816;49.778;9.986;2022-10-16T04:11:59;1.40;;;1.30;;
5587;SDS011;2816;49.778;9.986;2022-10-16T04:14:27;4.40;;;1.50;;
5587;SDS011;2816;49.778;9.986;2022-10-16T04:16:54;3.63;;;1.20;;
5587;SDS011;2816;49.778;9.986;2022-10-16T04:19:21;5.00;;;1.70;;
5587;SDS011;2816;49.778;9.986;2022-10-16T04:21:48;1.73;;;1.57;;
5587;SDS011;2816;49.778;9.986;2022-10-16T04:24:15;1.73;;;1.47;;
5587;SDS011;2816;49.778;9.986;2022-10-16T04:26:42;2.43;;;1.60;;
5587;SDS011;2816;49.778;9.986;2022-10-16T04:29:09;2.10;;;1.40;;
5587;SDS011;2816;49.778;9.986;2022-10-16T04:31:37;2.83;;;1.37;;
5587;SDS011;2816;49.778;9.986;2022-10-16T04:34:04;2.07;;;1.50;;
5587;SDS011;2816;49.778;9.986;2022-10-16T04:36:31;1.53;;;1.33;;
5587;SDS011;2816;49.778;9.986;2022-10-16T04:38:58;3.10;;;1.40;;
5587;SDS011;2816;49.778;9.986;2022-10-16T04:41:26;1.40;;;1.30;;
5587;SDS011;2816;49.778;9.986;2022-10-16T04:43:52;1.43;;;1.30;;
5587;SDS011;2816;49.778;9.986;2022-10-16T04:46:19;4.60;;;1.30;;
5587;SDS011;2816;49.778;9.986;2022-10-16T04:48:48;4.10;;;1.40;;
5587;SDS011;2816;49.778;9.986;2022-10-16T04:51:14;4.43;;;1.57;;
5587;SDS011;2816;49.778;9.986;2022-10-16T04:53:41;1.37;;;1.27;;
5587;SDS011;2816;49.778;9.986;2022-10-16T04:56:09;1.97;;;1.50;;
5587;SDS011;2816;49.778;9.986;2022-10-16T04:58:35;2.03;;;1.60;;
5587;SDS011;2816;49.778;9.986;2022-10-16T05:01:03;1.90;;;1.80;;
5587;SDS011;2816;49.778;9.986;2022-10-16T05:03:30;4.50;;;1.30;;
5587;SDS011;2816;49.778;9.986;2022-10-16T05:05:59;2.10;;;1.30;;
5587;SDS011;2816;49.778;9.986;2022-10-16T05:08:26;1.30;;;1.20;;
5587;SDS011;2816;49.778;9.986;2022-10-16T05:10:53;1.60;;;1.50;;
5587;SDS011;2816;49.778;9.986;2022-10-16T05:13:20;1.60;;;1.40;;
5587;SDS011;2816;49.778;9.986;2022-10-16T05:15:48;2.00;;;1.80;;
5587;SDS011;2816;49.778;9.986;2022-10-16T05:18:15;7.90;;;1.40;;
5587;SDS011;2816;49.778;9.986;2022-10-16T05:20:42;3.00;;;1.50;;
5587;SDS011;2816;49.778;9.986;2022-10-16T05:23:10;1.73;;;1.63;;
5587;SDS011;2816;49.778;9.986;2022-10-16T05:25:37;1.23;;;1.23;;
5587;SDS011;2816;49.778;9.986;2022-10-16T05:28:04;2.97;;;1.40;;
5587;SDS011;2816;49.778;9.986;2022-10-16T05:30:31;3.07;;;1.50;;
5587;SDS011;2816;49.778;9.986;2022-10-16T05:32:58;1.97;;;1.47;;
5587;SDS011;2816;49.778;9.986;2022-10-16T05:35:25;5.27;;;1.77;;
5587;SDS011;2816;49.778;9.986;2022-10-16T05:37:52;2.53;;;1.43;;
5587;SDS011;2816;49.778;9.986;2022-10-16T05:40:20;2.60;;;1.37;;
5587;SDS011;2816;49.778;9.986;2022-10-16T05:42:47;1.60;;;1.50;;
5587;SDS011;2816;49.778;9.986;2022-10-16T05:45:14;2.40;;;1.60;;
5587;SDS011;2816;49.778;9.986;2022-10-16T05:47:41;6.00;;;1.80;;
5587;SDS011;2816;49.778;9.986;2022-10-16T05:50:08;1.73;;;1.40;;
5587;SDS011;2816;49.778;9.986;2022-10-16T05:52:35;19.43;;;2.53;;
5587;SDS011;2816;49.778;9.986;2022-10-16T05:55:02;1.77;;;1.47;;
5587;SDS011;2816;49.778;9.986;2022-10-16T05:57:31;1.67;;;1.33;;
5587;SDS011;2816;49.778;9.986;2022-10-16T05:59:58;2.90;;;1.50;;
5587;SDS011;2816;49.778;9.986;2022-10-16T06:02:25;2.63;;;1.40;;
5587;SDS011;2816;49.778;9.986;2022-10-16T06:04:52;3.27;;;1.37;;
5587;SDS011;2816;49.778;9.986;2022-10-16T06:07:19;2.23;;;1.50;;
5587;SDS011;2816;49.778;9.986;2022-10-16T06:09:48;3.10;;;1.80;;
5587;SDS011;2816;49.778;9.986;2022-10-16T06:12:15;1.60;;;1.40;;
5587;SDS011;2816;49.778;9.986;2022-10-16T06:14:44;1.50;;;1.40;;
5587;SDS011;2816;49.778;9.986;2022-10-16T06:17:11;3.23;;;1.87;;
5587;SDS011;2816;49.778;9.986;2022-10-16T06:19:39;1.80;;;1.70;;
5587;SDS011;2816;49.778;9.986;2022-10-16T06:22:06;1.50;;;1.40;;
5587;SDS011;2816;49.778;9.986;2022-10-16T06:24:33;1.70;;;1.60;;
5587;SDS011;2816;49.778;9.986;2022-10-16T06:27:00;1.93;;;1.20;;
5587;SDS011;2816;49.778;9.986;2022-10-16T06:29:27;1.77;;;1.40;;
5587;SDS011;2816;49.778;9.986;2022-10-16T06:31:55;2.43;;;1.40;;
5587;SDS011;2816;49.778;9.986;2022-10-16T06:34:22;1.80;;;1.30;;
5587;SDS011;2816;49.778;9.986;2022-10-16T06:36:49;1.97;;;1.60;;
5587;SDS011;2816;49.778;9.986;2022-10-16T06:39:16;1.67;;;1.27;;
5587;SDS011;2816;49.778;9.986;2022-10-16T06:41:43;3.67;;;1.80;;
5587;SDS011;2816;49.778;9.986;2022-10-16T06:44:10;3.47;;;1.50;;
5587;SDS011;2816;49.778;9.986;2022-10-16T06:46:37;6.00;;;1.50;;
5587;SDS011;2816;49.778;9.986;2022-10-16T06:49:05;1.97;;;1.50;;
5587;SDS011;2816;49.778;9.986;2022-10-16T06:51:32;1.60;;;1.50;;
5587;SDS011;2816;49.778;9.986;2022-10-16T06:54:01;1.80;;;1.50;;
5587;SDS011;2816;49.778;9.986;2022-10-16T06:56:28;2.93;;;1.53;;
5587;SDS011;2816;49.778;9.986;2022-10-16T06:58:57;4.23;;;1.80;;
5587;SDS011;2816;49.778;9.986;2022-10-16T07:01:24;2.83;;;1.50;;
5587;SDS011;2816;49.778;9.986;2022-10-16T07:03:52;5.70;;;1.40;;
5587;SDS011;2816;49.778;9.986;2022-10-16T07:06:21;6.90;;;1.63;;
5587;SDS011;2816;49.778;9.986;2022-10-16T07:08:49;6.17;;;2.30;;
5587;SDS011;2816;49.778;9.986;2022-10-16T07:11:17;3.60;;;1.60;;
5587;SDS011;2816;49.778;9.986;2022-10-16T07:13:46;4.40;;;1.70;;
5587;SDS011;2816;49.778;9.986;2022-10-16T07:16:14;2.07;;;1.70;;
5587;SDS011;2816;49.778;9.986;2022-10-16T07:18:43;4.20;;;1.80;;
5587;SDS011;2816;49.778;9.986;2022-10-16T07:21:12;5.33;;;1.80;;
5587;SDS011;2816;49.778;9.986;2022-10-16T07:23:42;1.80;;;1.70;;
5587;SDS011;2816;49.778;9.986;2022-10-16T07:26:09;2.13;;;1.73;;
5587;SDS011;2816;49.778;9.986;2022-10-16T07:28:37;1.80;;;1.70;;
5587;SDS011;2816;49.778;9.986;2022-10-16T07:31:05;2.47;;;1.80;;
5587;SDS011;2816;49.778;9.986;2022-10-16T07:33:36;2.80;;;1.50;;
5587;SDS011;2816;49.778;9.986;2022-10-16T07:36:04;2.57;;;1.70;;
5587;SDS011;2816;49.778;9.986;2022-10-16T07:38:31;4.50;;;1.90;;
5587;SDS011;2816;49.778;9.986;2022-10-16T07:41:00;4.43;;;1.73;;
5587;SDS011;2816;49.778;9.986;2022-10-16T07:43:29;4.03;;;2.10;;
5587;SDS011;2816;49.778;9.986;2022-10-16T07:45:56;8.93;;;2.43;;
5587;SDS011;2816;49.778;9.986;2022-10-16T07:48:24;2.93;;;2.03;;
5587;SDS011;2816;49.778;9.986;2022-10-16T07:50:56;3.23;;;1.87;;
5587;SDS011;2816;49.778;9.986;2022-10-16T07:53:24;2.93;;;1.73;;
5587;SDS011;2816;49.778;9.986;2022-10-16T07:55:51;15.67;;;3.67;;
5587;SDS011;2816;49.778;9.986;2022-10-16T07:58:19;15.53;;;12.07;;
5587;SDS011;2816;49.778;9.986;2022-10-16T08:00:46;14.50;;;11.27;;
5587;SDS011;2816;49.778;9.986;2022-10-16T08:03:13;9.60;;;2.30;;
5587;SDS011;2816;49.778;9.986;2022-10-16T08:05:40;9.13;;;5.50;;
5587;SDS011;2816;49.778;9.986;2022-10-16T08:08:10;5.83;;;5.27;;
5587;SDS011;2816;49.778;9.986;2022-10-16T08:10:39;8.30;;;6.03;;
5587;SDS011;2816;49.778;9.986;2022-10-16T08:13:06;9.80;;;6.50;;
5587;SDS011;2816;49.778;9.986;2022-10-16T08:15:35;6.67;;;5.90;;
5587;SDS011;2816;49.778;9.986;2022-10-16T08:18:02;6.80;;;5.10;;
5587;SDS011;2816;49.778;9.986;2022-10-16T08:20:31;9.50;;;4.97;;
5587;SDS011;2816;49.778;9.986;2022-10-16T08:22:59;4.93;;;3.57;;
5587;SDS011;2816;49.778;9.986;2022-10-16T08:25:26;4.63;;;3.80;;
5587;SDS011;2816;49.778;9.986;2022-10-16T08:27:53;6.80;;;5.00;;
5587;SDS011;2816;49.778;9.986;2022-10-16T08:30:21;3.47;;;3.10;;
5587;SDS011;2816;49.778;9.986;2022-10-16T08:32:52;3.53;;;3.23;;
5587;SDS011;2816;49.778;9.986;2022-10-16T08:35:19;2.33;;;2.13;;
5587;SDS011;2816;49.778;9.986;2022-10-16T08:37:46;2.77;;;1.70;;
5587;SDS011;2816;49.778;9.986;2022-10-16T08:40:16;7.63;;;3.43;;
5587;SDS011;2816;49.778;9.986;2022-10-16T08:42:53;5.43;;;3.13;;
5587;SDS011;2816;49.778;9.986;2022-10-16T08:45:31;2.87;;;2.57;;
5587;SDS011;2816;49.778;9.986;2022-10-16T08:48:10;4.03;;;2.20;;
5587;SDS011;2816;49.778;9.986;2022-10-16T08:50:44;5.27;;;2.20;;
5587;SDS011;2816;49.778;9.986;2022-10-16T08:53:15;2.20;;;2.10;;
5587;SDS011;2816;49.778;9.986;2022-10-16T08:55:46;2.50;;;2.23;;
5587;SDS011;2816;49.778;9.986;2022-10-16T08:58:16;6.57;;;2.00;;
5587;SDS011;2816;49.778;9.986;2022-10-16T09:00:45;6.00;;;2.20;;
5587;SDS011;2816;49.778;9.986;2022-10-16T09:03:21;2.10;;;1.90;;
5587;SDS011;2816;49.778;9.986;2022-10-16T09:08:51;5.87;;;1.80;;
5587;SDS011;2816;49.778;9.986;2022-10-16T09:11:31;4.40;;;2.00;;
5587;SDS011;2816;49.778;9.986;2022-10-16T09:14:11;3.03;;;1.87;;
5587;SDS011;2816;49.778;9.986;2022-10-16T09:17:04;7.90;;;1.97;;
5587;SDS011;2816;49.778;9.986;2022-10-16T09:19:45;3.77;;;1.70;;
5587;SDS011;2816;49.778;9.986;2022-10-16T09:22:17;2.23;;;2.03;;
5587;SDS011;2816;49.778;9.986;2022-10-16T09:24:47;5.03;;;2.10;;
5587;SDS011;2816;49.778;9.986;2022-10-16T09:27:14;2.50;;;1.80;;
5587;SDS011;2816;49.778;9.986;2022-10-16T09:29:41;7.80;;;1.77;;
5587;SDS011;2816;49.778;9.986;2022-10-16T09:32:10;3.17;;;1.80;;
5587;SDS011;2816;49.778;9.986;2022-10-16T09:34:41;6.73;;;2.53;;
5587;SDS011;2816;49.778;9.986;2022-10-16T09:37:11;2.73;;;1.83;;
5587;SDS011;2816;49.778;9.986;2022-10-16T09:39:44;2.33;;;1.90;;
5587;SDS011;2816;49.778;9.986;2022-10-16T09:42:11;3.00;;;1.67;;
5587;SDS011;2816;49.778;9.986;2022-10-16T09:44:42;2.63;;;1.70;;
5587;SDS011;2816;49.778;9.986;2022-10-16T09:47:15;2.17;;;1.90;;
5587;SDS011;2816;49.778;9.986;2022-10-16T09:49:52;4.30;;;1.87;;
5587;SDS011;2816;49.778;9.986;2022-10-16T09:52:22;5.03;;;1.87;;
5587;SDS011;2816;49.778;9.986;2022-10-16T09:54:50;1.70;;;1.57;;
5587;SDS011;2816;49.778;9.986;2022-10-16T09:57:19;2.33;;;1.70;;
5587;SDS011;2816;49.778;9.986;2022-10-16T09:59:48;3.37;;;1.50;;
5587;SDS011;2816;49.778;9.986;2022-10-16T10:02:16;2.07;;;1.80;;
5587;SDS011;2816;49.778;9.986;2022-10-16T10:04:48;4.20;;;2.57;;
5587;SDS011;2816;49.778;9.986;2022-10-16T10:07:20;3.93;;;2.40;;
5587;SDS011;2816;49.778;9.986;2022-10-16T10:09:52;4.43;;;2.27;;
5587;SDS011;2816;49.778;9.986;2022-10-16T10:12:21;2.10;;;2.00;;
5587;SDS011;2816;49.778;9.986;2022-10-16T10:14:52;4.47;;;1.90;;
5587;SDS011;2816;49.778;9.986;2022-10-16T10:17:21;3.27;;;2.17;;
5587;SDS011;2816;49.778;9.986;2022-10-16T10:19:50;2.20;;;2.00;;
5587;SDS011;2816;49.778;9.986;2022-10-16T10:22:28;9.53;;;2.30;;
5587;SDS011;2816;49.778;9.986;2022-10-16T10:27:53;4.00;;;2.70;;
5587;SDS011;2816;49.778;9.986;2022-10-16T10:30:37;6.73;;;2.23;;
5587;SDS011;2816;49.778;9.986;2022-10-16T10:33:12;6.70;;;3.10;;
5587;SDS011;2816;49.778;9.986;2022-10-16T10:35:48;7.43;;;3.23;;
5587;SDS011;2816;49.778;9.986;2022-10-16T10:41:19;4.30;;;2.53;;
5587;SDS011;2816;49.778;9.986;2022-10-16T10:44:00;5.40;;;2.30;;
5587;SDS011;2816;49.778;9.986;2022-10-16T10:46:34;10.70;;;3.00;;
5587;SDS011;2816;49.778;9.986;2022-10-16T10:49:08;6.17;;;2.50;;
5587;SDS011;2816;49.778;9.986;2022-10-16T10:51:49;4.10;;;2.87;;
5587;SDS011;2816;49.778;9.986;2022-10-16T10:54:25;4.27;;;2.63;;
5587;SDS011;2816;49.778;9.986;2022-10-16T10:57:01;5.37;;;2.67;;
5587;SDS011;2816;49.778;9.986;2022-10-16T10:59:40;4.10;;;2.20;;
5587;SDS011;2816;49.778;9.986;2022-10-16T11:02:21;3.07;;;2.20;;
5587;SDS011;2816;49.778;9.986;2022-10-16T11:04:56;4.07;;;2.87;;
5587;SDS011;2816;49.778;9.986;2022-10-16T11:07:34;2.40;;;2.00;;
5587;SDS011;2816;49.778;9.986;2022-10-16T11:10:12;3.20;;;2.90;;
5587;SDS011;2816;49.778;9.986;2022-10-16T11:12:42;2.00;;;1.90;;
5587;SDS011;2816;49.778;9.986;2022-10-16T11:15:16;4.80;;;2.33;;
5587;SDS011;2816;49.778;9.986;2022-10-16T11:17:48;2.30;;;1.80;;
5587;SDS011;2816;49.778;9.986;2022-10-16T11:20:19;5.50;;;2.13;;
5587;SDS011;2816;49.778;9.986;2022-10-16T11:22:50;2.40;;;1.93;;
5587;SDS011;2816;49.778;9.986;2022-10-16T11:25:23;3.23;;;1.53;;
5587;SDS011;2816;49.778;9.986;2022-10-16T11:27:54;3.03;;;1.80;;
5587;SDS011;2816;49.778;9.986;2022-10-16T11:30:25;2.23;;;1.93;;
5587;SDS011;2816;49.778;9.986;2022-10-16T11:32:58;1.70;;;1.60;;
5587;SDS011;2816;49.778;9.986;2022-10-16T11:35:37;1.80;;;1.70;;
5587;SDS011;2816;49.778;9.986;2022-10-16T11:38:14;1.50;;;1.40;;
5587;SDS011;2816;49.778;9.986;2022-10-16T11:40:53;1.83;;;1.50;;
5587;SDS011;2816;49.778;9.986;2022-10-16T11:43:25;2.57;;;1.53;;
5587;SDS011;2816;49.778;9.986;2022-10-16T11:45:56;3.00;;;1.70;;
5587;SDS011;2816;49.778;9.986;2022-10-16T11:48:30;2.37;;;1.47;;
5587;SDS011;2816;49.778;9.986;2022-10-16T11:51:00;7.40;;;1.80;;
5587;SDS011;2816;49.778;9.986;2022-10-16T11:53:37;3.40;;;1.60;;
5587;SDS011;2816;49.778;9.986;2022-10-16T11:56:13;2.60;;;1.60;;
5587;SDS011;2816;49.778;9.986;2022-10-16T11:58:44;3.23;;;1.80;;
5587;SDS011;2816;49.778;9.986;2022-10-16T12:01:19;4.37;;;1.70;;
5587;SDS011;2816;49.778;9.986;2022-10-16T12:03:56;2.30;;;1.70;;
5587;SDS011;2816;49.778;9.986;2022-10-16T12:06:40;2.13;;;1.60;;
5587;SDS011;2816;49.778;9.986;2022-10-16T12:09:13;5.70;;;1.30;;
5587;SDS011;2816;49.778;9.986;2022-10-16T12:11:46;2.77;;;1.57;;
5587;SDS011;2816;49.778;9.986;2022-10-16T12:14:21;5.13;;;2.03;;
5587;SDS011;2816;49.778;9.986;2022-10-16T12:17:00;4.33;;;1.70;;
5587;SDS011;2816;49.778;9.986;2022-10-16T12:19:30;3.80;;;1.80;;
5587;SDS011;2816;49.778;9.986;2022-10-16T12:21:58;2.93;;;1.63;;
5587;SDS011;2816;49.778;9.986;2022-10-16T12:24:29;4.20;;;1.60;;
5587;SDS011;2816;49.778;9.986;2022-10-16T12:27:00;5.73;;;1.80;;
5587;SDS011;2816;49.778;9.986;2022-10-16T12:29:32;3.40;;;1.70;;
5587;SDS011;2816;49.778;9.986;2022-10-16T12:32:02;4.10;;;1.50;;
5587;SDS011;2816;49.778;9.986;2022-10-16T12:34:34;3.00;;;1.90;;
5587;SDS011;2816;49.778;9.986;2022-10-16T12:37:13;3.27;;;1.47;;
5587;SDS011;2816;49.778;9.986;2022-10-16T12:39:44;4.03;;;2.10;;
5587;SDS011;2816;49.778;9.986;2022-10-16T12:42:34;7.90;;;1.47;;
5587;SDS011;2816;49.778;9.986;2022-10-16T12:45:01;3.40;;;1.27;;
5587;SDS011;2816;49.778;9.986;2022-10-16T12:47:47;1.97;;;1.53;;
5587;SDS011;2816;49.778;9.986;2022-10-16T12:53:02;4.30;;;1.30;;
5587;SDS011;2816;49.778;9.986;2022-10-16T12:55:45;3.53;;;1.20;;
5587;SDS011;2816;49.778;9.986;2022-10-16T12:58:34;3.53;;;1.40;;
5587;SDS011;2816;49.778;9.986;2022-10-16T13:01:17;2.07;;;1.60;;
5587;SDS011;2816;49.778;9.986;2022-10-16T13:03:57;7.60;;;1.60;;
5587;SDS011;2816;49.778;9.986;2022-10-16T13:06:38;3.20;;;1.80;;
5587;SDS011;2816;49.778;9.986;2022-10-16T13:09:16;1.90;;;1.43;;
5587;SDS011;2816;49.778;9.986;2022-10-16T13:11:59;2.90;;;1.43;;
5587;SDS011;2816;49.778;9.986;2022-10-16T13:14:54;4.90;;;1.80;;
5587;SDS011;2816;49.778;9.986;2022-10-16T13:17:44;1.50;;;1.40;;
5587;SDS011;2816;49.778;9.986;2022-10-16T13:20:17;2.17;;;1.60;;
5587;SDS011;2816;49.778;9.986;2022-10-16T13:22:56;3.07;;;1.60;;
5587;SDS011;2816;49.778;9.986;2022-10-16T13:25:31;4.10;;;1.47;;
5587;SDS011;2816;49.778;9.986;2022-10-16T13:28:07;1.90;;;1.60;;
5587;SDS011;2816;49.778;9.986;2022-10-16T13:30:38;3.83;;;1.63;;
5587;SDS011;2816;49.778;9.986;2022-10-16T13:33:12;3.80;;;1.67;;
5587;SDS011;2816;49.778;9.986;2022-10-16T13:35:46;1.90;;;1.57;;
5587;SDS011;2816;49.778;9.986;2022-10-16T13:38:17;5.10;;;1.90;;
5587;SDS011;2816;49.778;9.986;2022-10-16T13:40:52;2.43;;;1.40;;
5587;SDS011;2816;49.778;9.986;2022-10-16T13:43:23;6.00;;;1.60;;
5587;SDS011;2816;49.778;9.986;2022-10-16T13:45:55;3.67;;;1.60;;
5587;SDS011;2816;49.778;9.986;2022-10-16T13:48:23;1.53;;;1.43;;
5587;SDS011;2816;49.778;9.986;2022-10-16T13:51:03;1.20;;;1.10;;
5587;SDS011;2816;49.778;9.986;2022-10-16T13:53:32;1.57;;;1.40;;
5587;SDS011;2816;49.778;9.986;2022-10-16T13:56:01;2.00;;;1.37;;
5587;SDS011;2816;49.778;9.986;2022-10-16T13:58:30;2.40;;;1.50;;
5587;SDS011;2816;49.778;9.986;2022-10-16T14:00:59;3.53;;;1.73;;
5587;SDS011;2816;49.778;9.986;2022-10-16T14:03:27;2.20;;;1.43;;
5587;SDS011;2816;49.778;9.986;2022-10-16T14:05:56;4.00;;;1.60;;
5587;SDS011;2816;49.778;9.986;2022-10-16T14:08:27;4.50;;;1.40;;
5587;SDS011;2816;49.778;9.986;2022-10-16T14:10:56;8.30;;;1.60;;
5587;SDS011;2816;49.778;9.986;2022-10-16T14:13:28;4.87;;;1.40;;
5587;SDS011;2816;49.778;9.986;2022-10-16T14:15:59;3.93;;;1.90;;
5587;SDS011;2816;49.778;9.986;2022-10-16T14:18:31;2.30;;;1.43;;
5587;SDS011;2816;49.778;9.986;2022-10-16T14:21:03;7.30;;;1.40;;
5587;SDS011;2816;49.778;9.986;2022-10-16T14:23:31;2.93;;;1.60;;
5587;SDS011;2816;49.778;9.986;2022-10-16T14:26:06;2.30;;;1.47;;
5587;SDS011;2816;49.778;9.986;2022-10-16T14:28:40;1.70;;;1.60;;
5587;SDS011;2816;49.778;9.986;2022-10-16T14:31:22;2.23;;;1.53;;
5587;SDS011;2816;49.778;9.986;2022-10-16T14:33:52;3.93;;;1.80;;
5587;SDS011;2816;49.778;9.986;2022-10-16T14:36:19;6.13;;;1.70;;
5587;SDS011;2816;49.778;9.986;2022-10-16T14:38:49;2.17;;;1.53;;
5587;SDS011;2816;49.778;9.986;2022-10-16T14:41:23;3.43;;;1.70;;
5587;SDS011;2816;49.778;9.986;2022-10-16T14:43:51;3.93;;;2.20;;
5587;SDS011;2816;49.778;9.986;2022-10-16T14:46:22;5.23;;;2.30;;
5587;SDS011;2816;49.778;9.986;2022-10-16T14:48:59;5.43;;;1.60;;
5587;SDS011;2816;49.778;9.986;2022-10-16T14:51:28;7.77;;;2.03;;
5587;SDS011;2816;49.778;9.986;2022-10-16T14:53:55;6.70;;;2.10;;
5587;SDS011;2816;49.778;9.986;2022-10-16T14:56:23;8.83;;;2.10;;
5587;SDS011;2816;49.778;9.986;2022-10-16T14:58:53;5.40;;;2.00;;
5587;SDS011;2816;49.778;9.986;2022-10-16T15:01:22;9.57;;;2.70;;
5587;SDS011;2816;49.778;9.986;2022-10-16T15:03:49;5.40;;;2.23;;
5587;SDS011;2816;49.778;9.986;2022-10-16T15:06:19;9.00;;;2.60;;
5587;SDS011;2816;49.778;9.986;2022-10-16T15:08:46;5.80;;;2.00;;
5587;SDS011;2816;49.778;9.986;2022-10-16T15:11:13;3.90;;;1.70;;
5587;SDS011;2816;49.778;9.986;2022-10-16T15:13:42;2.17;;;1.93;;
5587;SDS011;2816;49.778;9.986;2022-10-16T15:16:10;4.03;;;1.67;;
5587;SDS011;2816;49.778;9.986;2022-10-16T15:18:39;5.70;;;1.90;;
5587;SDS011;2816;49.778;9.986;2022-10-16T15:21:06;5.90;;;2.30;;
5587;SDS011;2816;49.778;9.986;2022-10-16T15:23:33;8.97;;;2.37;;
5587;SDS011;2816;49.778;9.986;2022-10-16T15:26:00;3.47;;;1.90;;
5587;SDS011;2816;49.778;9.986;2022-10-16T15:28:27;7.30;;;2.20;;
5587;SDS011;2816;49.778;9.986;2022-10-16T15:30:55;15.20;;;2.27;;
5587;SDS011;2816;49.778;9.986;2022-10-16T15:33:23;4.33;;;2.47;;
5587;SDS011;2816;49.778;9.986;2022-10-16T15:35:55;4.20;;;2.13;;
5587;SDS011;2816;49.778;9.986;2022-10-16T15:38:22;6.00;;;2.37;;
5587;SDS011;2816;49.778;9.986;2022-10-16T15:40:49;4.70;;;2.43;;
5587;SDS011;2816;49.778;9.986;2022-10-16T15:43:16;2.30;;;2.13;;
5587;SDS011;2816;49.778;9.986;2022-10-16T15:45:43;4.50;;;2.10;;